createdAt,value
2023-02-25T00:02:15.295Z,25.20
2023-02-25T00:04:43.587Z,25.23
2023-02-25T00:07:13.218Z,27.75
2023-02-25T00:09:41.474Z,23.65
2023-02-25T00:12:10.291Z,27.30
2023-02-25T00:14:38.469Z,29.13
2023-02-25T00:17:06.704Z,26.70
2023-02-25T00:19:35.026Z,25.90
2023-02-25T00:22:03.748Z,26.95
2023-02-25T00:24:33.378Z,25.65
2023-02-25T00:27:01.578Z,24.52
2023-02-25T00:29:29.985Z,22.75
2023-02-25T00:31:58.446Z,24.67
2023-02-25T00:34:28.662Z,23.08
2023-02-25T00:36:58.125Z,25.00
2023-02-25T00:39:42.373Z,23.33
2023-02-25T00:42:13.363Z,23.02
2023-02-25T00:44:45.060Z,23.67
2023-02-25T00:47:14.056Z,24.95
2023-02-25T00:49:43.020Z,26.85
2023-02-25T00:52:11.406Z,24.92
2023-02-25T00:54:40.566Z,24.55
2023-02-25T00:57:08.861Z,24.13
2023-02-25T00:59:38.669Z,24.58
2023-02-25T01:02:06.969Z,23.70
2023-02-25T01:04:35.375Z,23.38
2023-02-25T01:07:03.989Z,25.95
2023-02-25T01:09:33.945Z,24.55
2023-02-25T01:12:02.188Z,26.65
2023-02-25T01:14:30.531Z,23.95
2023-02-25T01:17:02.191Z,25.00
2023-02-25T01:19:30.922Z,23.95
2023-02-25T01:22:00.507Z,22.38
2023-02-25T01:24:30.732Z,24.33
2023-02-25T01:27:01.005Z,23.67
2023-02-25T01:29:31.590Z,23.42
2023-02-25T01:32:03.623Z,22.05
2023-02-25T01:34:32.166Z,22.50
2023-02-25T01:37:04.369Z,23.73
2023-02-25T01:39:33.507Z,22.77
2023-02-25T01:42:05.605Z,21.15
2023-02-25T01:44:35.892Z,22.23
2023-02-25T01:47:07.276Z,23.08
2023-02-25T01:49:41.992Z,24.58
2023-02-25T01:52:14.467Z,24.98
2023-02-25T01:54:45.216Z,21.30
2023-02-25T01:57:16.524Z,24.08
2023-02-25T01:59:45.809Z,19.77
2023-02-25T02:02:19.497Z,20.70
2023-02-25T02:04:50.304Z,21.42
2023-02-25T02:07:24.674Z,21.15
2023-02-25T02:09:57.127Z,19.98
2023-02-25T02:12:26.837Z,19.30
2023-02-25T02:14:57.090Z,19.10
2023-02-25T02:17:30.769Z,18.50
2023-02-25T02:20:13.405Z,17.38
2023-02-25T02:22:53.197Z,16.98
2023-02-25T02:25:55.198Z,16.90
2023-02-25T02:29:14.000Z,14.93
2023-02-25T02:32:06.511Z,16.90
2023-02-25T02:34:48.159Z,17.42
2023-02-25T02:37:32.347Z,15.32
2023-02-25T02:40:15.812Z,16.20
2023-02-25T02:42:48.882Z,16.30
2023-02-25T02:45:22.930Z,15.80
2023-02-25T02:47:58.055Z,16.42
2023-02-25T02:50:33.937Z,15.70
2023-02-25T02:53:07.841Z,17.17
2023-02-25T02:55:41.391Z,17.35
2023-02-25T02:58:16.319Z,16.15
2023-02-25T03:00:48.618Z,14.80
2023-02-25T03:03:21.843Z,15.90
2023-02-25T03:05:53.960Z,15.57
2023-02-25T03:08:26.578Z,16.90
2023-02-25T03:10:55.228Z,16.63
2023-02-25T03:13:23.712Z,16.15
2023-02-25T03:15:53.887Z,16.08
2023-02-25T03:18:26.753Z,15.88
2023-02-25T03:20:59.952Z,17.10
2023-02-25T03:23:32.305Z,15.85
2023-02-25T03:26:13.077Z,15.75
2023-02-25T03:28:45.303Z,17.20
2023-02-25T03:31:21.701Z,14.88
2023-02-25T03:33:55.970Z,16.52
2023-02-25T03:36:29.440Z,17.30
2023-02-25T03:39:01.774Z,16.20
2023-02-25T03:41:35.711Z,18.77
2023-02-25T03:44:08.159Z,18.60
2023-02-25T03:46:37.216Z,18.38
2023-02-25T03:49:11.706Z,18.25
2023-02-25T03:51:42.717Z,20.63
2023-02-25T03:54:11.037Z,21.75
2023-02-25T03:56:44.564Z,21.65
2023-02-25T03:59:12.795Z,22.92
2023-02-25T04:01:43.516Z,19.80
2023-02-25T04:04:13.481Z,19.65
2023-02-25T04:06:42.064Z,21.92
2023-02-25T04:09:10.292Z,22.00
2023-02-25T04:11:38.605Z,22.00
2023-02-25T04:14:07.376Z,23.17
2023-02-25T04:16:35.819Z,20.55
2023-02-25T04:19:04.523Z,20.63
2023-02-25T04:21:37.448Z,22.38
2023-02-25T04:24:07.170Z,22.63
2023-02-25T04:26:35.739Z,22.85
2023-02-25T04:29:05.105Z,22.33
2023-02-25T04:31:33.584Z,21.42
2023-02-25T04:34:01.927Z,21.88
2023-02-25T04:36:32.234Z,23.85
2023-02-25T04:39:03.621Z,20.70
2023-02-25T04:41:34.514Z,23.15
2023-02-25T04:44:04.219Z,20.95
2023-02-25T04:46:33.061Z,18.58
2023-02-25T04:49:01.701Z,23.90
2023-02-25T04:51:30.089Z,24.73
2023-02-25T04:53:58.349Z,24.98
2023-02-25T04:56:28.422Z,22.63
2023-02-25T04:58:58.280Z,21.70
2023-02-25T05:01:26.701Z,21.30
2023-02-25T05:03:57.051Z,23.30
2023-02-25T05:06:26.390Z,24.13
2023-02-25T05:08:54.731Z,23.90
2023-02-25T05:11:23.145Z,22.48
2023-02-25T05:13:53.224Z,21.80
2023-02-25T05:16:22.545Z,22.20
2023-02-25T05:18:51.072Z,29.40
2023-02-25T05:21:21.246Z,25.70
2023-02-25T05:23:51.159Z,27.73
2023-02-25T05:26:22.796Z,24.95
2023-02-25T05:28:53.142Z,27.80
2023-02-25T05:31:23.124Z,27.45
2023-02-25T05:33:52.019Z,26.85
2023-02-25T05:36:20.590Z,27.65
2023-02-25T05:38:49.107Z,28.75
2023-02-25T05:41:17.373Z,25.83
2023-02-25T05:43:46.091Z,25.88
2023-02-25T05:46:16.148Z,28.20
2023-02-25T05:48:46.754Z,27.95
2023-02-25T05:51:17.265Z,28.38
2023-02-25T05:53:45.880Z,28.90
2023-02-25T05:56:17.012Z,29.17
2023-02-25T05:58:46.838Z,23.33
2023-02-25T06:01:18.730Z,23.83
2023-02-25T06:03:49.109Z,25.42
2023-02-25T06:06:23.328Z,25.52
2023-02-25T06:08:52.310Z,27.95
2023-02-25T06:11:23.401Z,28.00
2023-02-25T06:13:52.194Z,28.52
2023-02-25T06:16:22.841Z,28.23
2023-02-25T06:18:51.587Z,28.85
2023-02-25T06:21:20.112Z,26.90
2023-02-25T06:23:50.403Z,27.77
2023-02-25T06:26:19.299Z,27.25
2023-02-25T06:28:47.718Z,26.85
2023-02-25T06:31:18.099Z,25.65
2023-02-25T06:33:47.902Z,27.88
2023-02-25T06:36:16.201Z,26.25
2023-02-25T06:38:46.120Z,22.20
2023-02-25T06:41:16.710Z,24.38
2023-02-25T06:43:45.800Z,23.08
2023-02-25T06:46:15.801Z,23.65
2023-02-25T06:48:44.068Z,21.77
2023-02-25T06:51:14.248Z,23.13
2023-02-25T06:53:44.269Z,22.45
2023-02-25T06:56:14.760Z,23.52
2023-02-25T06:58:43.287Z,22.40
2023-02-25T07:01:13.740Z,23.45
2023-02-25T07:03:43.504Z,20.60
2023-02-25T07:06:14.105Z,20.90
2023-02-25T07:08:42.391Z,20.55
2023-02-25T07:11:29.295Z,19.27
2023-02-25T07:13:58.135Z,19.42
2023-02-25T07:16:26.789Z,19.55
2023-02-25T07:18:55.068Z,20.27
2023-02-25T07:21:29.344Z,20.95
2023-02-25T07:23:57.960Z,21.35
2023-02-25T07:26:28.400Z,21.50
2023-02-25T07:28:58.100Z,21.77
2023-02-25T07:31:28.365Z,20.40
2023-02-25T07:33:57.126Z,20.35
2023-02-25T07:36:28.607Z,21.17
2023-02-25T07:38:56.881Z,19.05
2023-02-25T07:41:25.229Z,18.98
2023-02-25T07:43:53.740Z,18.65
2023-02-25T07:46:22.281Z,17.50
2023-02-25T07:48:50.532Z,18.73
2023-02-25T07:51:20.738Z,16.65
2023-02-25T07:53:51.858Z,15.93
2023-02-25T07:56:22.197Z,16.65
2023-02-25T07:58:50.645Z,16.63
2023-02-25T08:01:23.722Z,19.73
2023-02-25T08:03:52.573Z,17.75
2023-02-25T08:06:21.397Z,16.80
2023-02-25T08:08:52.123Z,18.38
2023-02-25T08:11:22.793Z,16.05
2023-02-25T08:13:51.563Z,16.45
2023-02-25T08:16:22.112Z,16.17
2023-02-25T08:18:53.013Z,20.23
2023-02-25T08:21:23.705Z,29.20
2023-02-25T08:23:54.927Z,28.80
2023-02-25T08:26:24.590Z,27.70
2023-02-25T08:28:53.086Z,25.95
2023-02-25T08:31:21.756Z,23.33
2023-02-25T08:33:52.940Z,19.40
2023-02-25T08:36:23.810Z,20.83
2023-02-25T08:38:54.026Z,20.90
2023-02-25T08:41:23.908Z,22.10
2023-02-25T08:43:54.609Z,21.90
2023-02-25T08:46:24.192Z,19.80
2023-02-25T08:48:54.139Z,20.57
2023-02-25T08:51:23.953Z,19.33
2023-02-25T08:53:54.027Z,19.57
2023-02-25T08:56:22.287Z,20.90
2023-02-25T08:58:50.556Z,18.00
2023-02-25T09:01:19.255Z,16.45
2023-02-25T09:03:52.423Z,18.43
2023-02-25T09:06:22.206Z,16.67
2023-02-25T09:08:50.679Z,17.07
2023-02-25T09:11:21.087Z,20.13
2023-02-25T09:13:49.848Z,20.17
2023-02-25T09:16:19.166Z,22.05
2023-02-25T09:18:48.817Z,18.63
2023-02-25T09:21:17.423Z,17.30
2023-02-25T09:23:46.895Z,19.63
2023-02-25T09:26:15.631Z,18.42
2023-02-25T09:28:45.937Z,19.65
2023-02-25T09:31:14.618Z,20.27
2023-02-25T09:33:43.101Z,20.33
2023-02-25T09:36:13.658Z,20.08
2023-02-25T09:38:43.654Z,17.40
2023-02-25T09:41:26.615Z,15.80
2023-02-25T09:44:05.922Z,14.93
2023-02-25T09:46:38.485Z,14.02
2023-02-25T09:49:12.022Z,14.20
2023-02-25T09:51:44.755Z,15.00
2023-02-25T09:54:21.619Z,15.73
2023-02-25T09:56:51.246Z,15.63
2023-02-25T09:59:22.363Z,16.52
2023-02-25T10:01:55.358Z,17.55
2023-02-25T10:04:31.189Z,17.63
2023-02-25T10:07:06.062Z,20.60
2023-02-25T10:09:45.303Z,18.60
2023-02-25T10:12:23.757Z,20.90
2023-02-25T10:15:13.223Z,21.40
2023-02-25T10:17:53.476Z,20.90
2023-02-25T10:20:40.263Z,18.15
2023-02-25T10:23:18.903Z,20.98
2023-02-25T10:25:57.210Z,20.48
2023-02-25T10:28:25.957Z,17.33
2023-02-25T10:31:00.837Z,21.50
2023-02-25T10:33:34.676Z,18.85
2023-02-25T10:36:10.349Z,15.32
2023-02-25T10:38:43.333Z,17.27
2023-02-25T10:41:11.563Z,17.20
2023-02-25T10:43:39.834Z,16.92
2023-02-25T10:46:15.667Z,16.15
2023-02-25T10:48:48.733Z,15.88
2023-02-25T10:51:17.647Z,15.23
2023-02-25T10:54:05.098Z,17.10
2023-02-25T10:56:39.928Z,13.93
2023-02-25T10:59:23.797Z,15.52
2023-02-25T11:01:54.397Z,15.38
2023-02-25T11:04:26.210Z,14.30
2023-02-25T11:06:54.528Z,16.13
2023-02-25T11:09:31.802Z,13.90
2023-02-25T11:12:02.200Z,15.38
2023-02-25T11:14:32.192Z,13.50
2023-02-25T11:17:08.566Z,10.40
2023-02-25T11:19:40.079Z,12.20
2023-02-25T11:22:11.574Z,12.05
2023-02-25T11:24:42.899Z,10.93
2023-02-25T11:27:26.881Z,10.90
2023-02-25T11:30:01.517Z,12.53
2023-02-25T11:32:32.336Z,10.40
2023-02-25T11:35:07.920Z,10.33
2023-02-25T11:37:39.793Z,10.33
2023-02-25T11:40:25.671Z,9.50
2023-02-25T11:43:17.227Z,9.30
2023-02-25T11:45:53.978Z,9.20
2023-02-25T11:48:28.477Z,8.70
2023-02-25T11:51:05.022Z,11.13
2023-02-25T11:53:49.875Z,9.13
2023-02-25T11:56:26.688Z,9.60
2023-02-25T11:59:12.932Z,9.87
2023-02-25T12:02:03.329Z,6.60
2023-02-25T12:05:03.839Z,7.60
2023-02-25T12:08:12.294Z,8.10
2023-02-25T12:11:07.581Z,7.57
2023-02-25T12:14:04.196Z,8.43
2023-02-25T12:17:07.066Z,6.87
2023-02-25T12:20:02.106Z,5.40
2023-02-25T12:23:07.723Z,6.83
2023-02-25T12:25:48.209Z,4.63
2023-02-25T12:28:45.617Z,6.57
2023-02-25T12:32:01.090Z,6.03
2023-02-25T12:34:55.364Z,3.67
2023-02-25T12:37:46.229Z,6.93
2023-02-25T12:40:58.763Z,6.00
2023-02-25T12:43:36.777Z,6.30
2023-02-25T12:46:41.497Z,6.00
2023-02-25T12:49:44.654Z,5.50
2023-02-25T12:52:35.504Z,5.30
2023-02-25T12:55:35.294Z,6.27
2023-02-25T12:58:44.254Z,6.13
2023-02-25T13:01:29.540Z,6.17
2023-02-25T13:04:26.808Z,7.50
2023-02-25T13:07:24.443Z,6.17
2023-02-25T13:10:08.172Z,9.20
2023-02-25T13:13:02.005Z,6.33
2023-02-25T13:15:42.048Z,6.67
2023-02-25T13:18:20.102Z,7.37
2023-02-25T13:21:06.762Z,7.00
2023-02-25T13:24:01.289Z,6.00
2023-02-25T13:26:45.296Z,6.60
2023-02-25T13:29:26.824Z,6.67
2023-02-25T13:32:06.004Z,6.60
2023-02-25T13:34:44.169Z,5.90
2023-02-25T13:37:32.022Z,6.73
2023-02-25T13:40:27.274Z,6.37
2023-02-25T13:43:03.697Z,6.00
2023-02-25T13:45:53.320Z,4.93
2023-02-25T13:48:39.092Z,6.20
2023-02-25T13:51:29.094Z,6.50
2023-02-25T13:54:22.298Z,5.67
2023-02-25T13:57:00.196Z,6.47
2023-02-25T13:59:44.981Z,5.87
2023-02-25T14:02:31.909Z,8.50
2023-02-25T14:05:24.393Z,6.57
2023-02-25T14:08:34.711Z,6.03
2023-02-25T14:11:16.869Z,6.53
2023-02-25T14:14:19.949Z,6.47
2023-02-25T14:17:09.669Z,6.50
2023-02-25T14:19:47.444Z,6.43
2023-02-25T14:22:36.264Z,6.43
2023-02-25T14:25:18.192Z,6.57
2023-02-25T14:27:52.359Z,6.37
2023-02-25T14:30:30.149Z,7.50
2023-02-25T14:33:10.944Z,6.73
2023-02-25T14:35:49.629Z,6.43
2023-02-25T14:38:27.589Z,9.63
2023-02-25T14:41:09.560Z,7.00
2023-02-25T14:43:38.931Z,7.43
2023-02-25T14:46:19.796Z,7.20
2023-02-25T14:48:55.883Z,5.73
2023-02-25T14:51:55.766Z,6.10
2023-02-25T14:55:09.215Z,8.67
2023-02-25T14:58:15.988Z,7.80
2023-02-25T15:01:07.495Z,8.10
2023-02-25T15:03:56.921Z,5.87
2023-02-25T15:06:39.827Z,6.57
2023-02-25T15:09:33.401Z,8.40
2023-02-25T15:12:32.384Z,6.27
2023-02-25T15:15:20.774Z,6.80
2023-02-25T15:18:23.339Z,7.03
2023-02-25T15:20:52.095Z,5.73
2023-02-25T15:23:21.776Z,6.70
2023-02-25T15:25:53.880Z,5.80
2023-02-25T15:28:39.168Z,6.00
2023-02-25T15:31:12.542Z,6.67
2023-02-25T15:33:42.274Z,6.70
2023-02-25T15:36:29.405Z,6.47
2023-02-25T15:38:58.153Z,7.97
2023-02-25T15:41:46.858Z,6.23
2023-02-25T15:44:44.834Z,6.40
2023-02-25T15:47:27.046Z,7.53
2023-02-25T15:49:58.270Z,7.53
2023-02-25T15:52:58.414Z,7.13
2023-02-25T15:55:39.988Z,7.00
2023-02-25T15:58:43.658Z,6.43
2023-02-25T16:01:30.912Z,6.93
2023-02-25T16:03:59.470Z,8.10
2023-02-25T16:06:33.803Z,7.77
2023-02-25T16:09:07.766Z,8.33
2023-02-25T16:11:39.686Z,6.17
2023-02-25T16:14:13.569Z,7.10
2023-02-25T16:16:50.546Z,5.50
2023-02-25T16:19:22.899Z,6.33
2023-02-25T16:21:55.352Z,7.00
2023-02-25T16:24:24.537Z,7.70
2023-02-25T16:26:59.572Z,10.10
2023-02-25T16:29:50.688Z,7.40
2023-02-25T16:32:30.685Z,6.30
2023-02-25T16:35:08.187Z,7.60
2023-02-25T16:37:48.678Z,6.93
2023-02-25T16:40:22.242Z,6.50
2023-02-25T16:42:50.598Z,6.03
2023-02-25T16:45:26.833Z,6.50
2023-02-25T16:48:00.073Z,6.40
2023-02-25T16:50:31.632Z,6.73
2023-02-25T16:53:01.614Z,6.70
2023-02-25T16:55:36.546Z,9.10
2023-02-25T16:58:08.633Z,6.97
2023-02-25T17:00:37.311Z,6.03
2023-02-25T17:03:12.199Z,6.90
2023-02-25T17:05:40.911Z,6.93
2023-02-25T17:08:18.097Z,9.03
2023-02-25T17:10:49.451Z,8.00
2023-02-25T17:13:25.732Z,6.73
2023-02-25T17:15:54.881Z,7.40
2023-02-25T17:18:30.155Z,8.67
2023-02-25T17:21:04.239Z,9.00
2023-02-25T17:23:38.322Z,7.67
2023-02-25T17:26:09.815Z,7.23
2023-02-25T17:28:38.296Z,6.77
2023-02-25T17:31:10.144Z,8.30
2023-02-25T17:33:48.373Z,7.70
2023-02-25T17:36:19.550Z,6.60
2023-02-25T17:38:51.601Z,7.13
2023-02-25T17:41:21.086Z,6.57
2023-02-25T17:43:49.591Z,7.63
2023-02-25T17:46:27.700Z,7.73
2023-02-25T17:49:00.038Z,6.57
2023-02-25T17:51:33.353Z,5.77
2023-02-25T17:54:07.567Z,7.03
2023-02-25T17:56:37.310Z,7.20
2023-02-25T17:59:07.413Z,7.20
2023-02-25T18:01:48.174Z,6.90
2023-02-25T18:04:26.976Z,8.60
2023-02-25T18:06:56.503Z,7.70
2023-02-25T18:09:38.782Z,8.30
2023-02-25T18:12:10.072Z,6.33
2023-02-25T18:14:40.093Z,7.47
2023-02-25T18:17:28.288Z,7.37
2023-02-25T18:20:00.217Z,6.23
2023-02-25T18:22:35.902Z,7.77
2023-02-25T18:25:09.337Z,8.13
2023-02-25T18:27:38.054Z,7.30
2023-02-25T18:30:19.494Z,7.57
2023-02-25T18:32:48.564Z,6.70
2023-02-25T18:35:19.132Z,6.77
2023-02-25T18:37:49.831Z,7.90
2023-02-25T18:40:23.254Z,6.63
2023-02-25T18:42:51.667Z,7.00
2023-02-25T18:45:22.973Z,7.67
2023-02-25T18:47:51.977Z,7.43
2023-02-25T18:50:22.802Z,8.50
2023-02-25T18:52:51.205Z,7.40
2023-02-25T18:55:22.390Z,6.80
2023-02-25T18:57:50.825Z,7.93
2023-02-25T19:00:22.265Z,7.10
2023-02-25T19:02:53.189Z,7.00
2023-02-25T19:05:25.147Z,7.43
2023-02-25T19:07:53.990Z,7.63
2023-02-25T19:10:24.928Z,7.33
2023-02-25T19:12:59.976Z,7.03
2023-02-25T19:15:28.848Z,7.83
2023-02-25T19:17:57.923Z,7.73
2023-02-25T19:20:28.596Z,5.60
2023-02-25T19:22:57.475Z,8.43
2023-02-25T19:25:28.605Z,6.10
2023-02-25T19:27:58.396Z,5.87
2023-02-25T19:30:29.591Z,7.07
2023-02-25T19:33:02.889Z,6.67
2023-02-25T19:35:35.830Z,6.70
2023-02-25T19:38:04.857Z,8.10
2023-02-25T19:40:34.120Z,5.97
2023-02-25T19:43:03.074Z,7.50
2023-02-25T19:45:32.551Z,6.13
2023-02-25T19:48:01.569Z,6.37
2023-02-25T19:50:32.267Z,6.80
2023-02-25T19:53:03.805Z,8.53
2023-02-25T19:55:33.462Z,8.80
2023-02-25T19:58:02.276Z,6.30
2023-02-25T20:00:31.168Z,7.50
2023-02-25T20:03:00.158Z,6.67
2023-02-25T20:05:29.028Z,7.63
2023-02-25T20:07:57.982Z,6.97
2023-02-25T20:10:28.217Z,7.60
2023-02-25T20:12:56.894Z,8.63
2023-02-25T20:15:25.942Z,7.70
2023-02-25T20:17:55.836Z,6.40
2023-02-25T20:20:24.866Z,7.47
2023-02-25T20:22:54.260Z,6.90
2023-02-25T20:25:23.037Z,7.50
2023-02-25T20:27:52.873Z,7.30
2023-02-25T20:30:23.116Z,7.77
2023-02-25T20:32:52.141Z,7.03
2023-02-25T20:35:23.153Z,5.50
2023-02-25T20:38:08.455Z,6.90
2023-02-25T20:40:37.455Z,7.20
2023-02-25T20:43:07.455Z,7.13
2023-02-25T20:45:36.376Z,7.10
2023-02-25T20:48:05.025Z,6.43
2023-02-25T20:50:33.969Z,6.97
2023-02-25T20:53:02.400Z,6.87
2023-02-25T20:55:30.793Z,6.87
2023-02-25T20:57:59.040Z,6.50
2023-02-25T21:00:28.799Z,6.50
2023-02-25T21:02:57.085Z,6.93
2023-02-25T21:05:25.317Z,6.60
2023-02-25T21:07:53.537Z,6.77
2023-02-25T21:10:21.782Z,5.87
2023-02-25T21:12:50.104Z,6.30
2023-02-25T21:15:18.625Z,6.07
2023-02-25T21:17:48.240Z,6.20
2023-02-25T21:20:16.527Z,6.10
2023-02-25T21:22:44.776Z,6.27
2023-02-25T21:25:13.064Z,6.27
2023-02-25T21:27:41.230Z,6.87
2023-02-25T21:30:10.736Z,7.67
2023-02-25T21:32:39.011Z,7.47
2023-02-25T21:35:10.696Z,7.70
2023-02-25T21:37:39.133Z,7.83
2023-02-25T21:40:08.499Z,6.50
2023-02-25T21:42:36.730Z,6.60
2023-02-25T21:45:06.245Z,5.47
2023-02-25T21:47:34.528Z,5.70
2023-02-25T21:50:03.234Z,5.13
2023-02-25T21:52:33.036Z,6.73
2023-02-25T21:55:01.416Z,6.43
2023-02-25T21:57:29.916Z,6.30
2023-02-25T22:00:00.111Z,7.40
2023-02-25T22:02:32.922Z,5.60
2023-02-25T22:05:02.839Z,5.27
2023-02-25T22:07:32.651Z,5.70
2023-02-25T22:10:01.105Z,6.40
2023-02-25T22:12:29.515Z,7.90
2023-02-25T22:14:57.773Z,6.80
2023-02-25T22:17:26.092Z,6.73
2023-02-25T22:19:54.353Z,6.10
2023-02-25T22:22:22.880Z,6.27
2023-02-25T22:24:52.541Z,6.33
2023-02-25T22:27:21.095Z,5.80
2023-02-25T22:29:49.552Z,8.30
2023-02-25T22:32:18.309Z,6.30
2023-02-25T22:34:46.958Z,6.37
2023-02-25T22:37:15.339Z,6.70
2023-02-25T22:39:43.591Z,7.90
2023-02-25T22:42:13.320Z,6.00
2023-02-25T22:44:41.545Z,6.27
2023-02-25T22:47:09.841Z,5.90
2023-02-25T22:49:38.126Z,6.67
2023-02-25T22:52:06.501Z,6.23
2023-02-25T22:54:34.736Z,6.13
2023-02-25T22:57:03.095Z,5.70
2023-02-25T22:59:32.702Z,6.40
2023-02-25T23:02:01.062Z,5.60
2023-02-25T23:04:29.419Z,5.70
2023-02-25T23:06:57.743Z,5.93
2023-02-25T23:09:26.107Z,6.13
2023-02-25T23:11:54.589Z,6.20
2023-02-25T23:14:22.867Z,8.00
2023-02-25T23:16:52.665Z,6.50
2023-02-25T23:19:21.404Z,6.13
2023-02-25T23:21:49.819Z,6.20
2023-02-25T23:24:19.546Z,8.23
2023-02-25T23:26:50.563Z,6.47
2023-02-25T23:29:18.978Z,6.90
2023-02-25T23:31:50.034Z,6.97
2023-02-25T23:34:22.974Z,7.20
2023-02-25T23:36:51.466Z,6.70
2023-02-25T23:39:19.772Z,6.80
2023-02-25T23:44:17.289Z,6.57
2023-02-25T23:46:46.030Z,7.10
2023-02-25T23:49:16.354Z,6.50
2023-02-25T23:51:48.293Z,6.40
2023-02-25T23:54:19.041Z,5.63
2023-02-25T23:56:47.647Z,6.50
2023-02-25T23:59:15.995Z,5.90
